sensor_id;sensor_type;location;lat;lon;timestamp;pressure;altitude;pressure_sealevel;temperature;humidity
18022;BME280;9136;48.822;7.966;2022-07-19T00:00:22;100495.91;;;19.50;83.68
18022;BME280;9136;48.822;7.966;2022-07-19T00:03:11;100492.13;;;19.40;80.15
18022;BME280;9136;48.822;7.966;2022-07-19T00:06:00;100480.78;;;19.36;81.71
18022;BME280;9136;48.822;7.966;2022-07-19T00:08:47;100480.78;;;19.36;80.85
18022;BME280;9136;48.822;7.966;2022-07-19T00:11:35;100473.69;;;19.23;82.35
18022;BME280;9136;48.822;7.966;2022-07-19T00:14:23;100486.81;;;19.26;80.49
18022;BME280;9136;48.822;7.966;2022-07-19T00:17:11;100464.97;;;19.06;85.09
18022;BME280;9136;48.822;7.966;2022-07-19T00:19:59;100495.41;;;19.16;82.97
18022;BME280;9136;48.822;7.966;2022-07-19T00:22:48;100477.44;;;19.06;91.13
18022;BME280;9136;48.822;7.966;2022-07-19T00:25:36;100466.25;;;18.86;83.92
18022;BME280;9136;48.822;7.966;2022-07-19T00:28:24;100480.69;;;18.97;92.78
18022;BME280;9136;48.822;7.966;2022-07-19T00:31:12;100486.97;;;18.96;90.29
18022;BME280;9136;48.822;7.966;2022-07-19T00:34:00;100483.94;;;18.87;96.16
18022;BME280;9136;48.822;7.966;2022-07-19T00:36:48;100465.22;;;18.75;92.87
18022;BME280;9136;48.822;7.966;2022-07-19T00:39:37;100471.19;;;18.78;94.45
18022;BME280;9136;48.822;7.966;2022-07-19T00:42:25;100480.13;;;18.77;97.48
18022;BME280;9136;48.822;7.966;2022-07-19T00:45:12;100461.66;;;18.60;99.30
18022;BME280;9136;48.822;7.966;2022-07-19T00:48:00;100470.34;;;18.64;100.00
18022;BME280;9136;48.822;7.966;2022-07-19T00:50:48;100479.16;;;18.64;99.24
18022;BME280;9136;48.822;7.966;2022-07-19T00:53:37;100465.69;;;18.53;99.41
18022;BME280;9136;48.822;7.966;2022-07-19T00:56:27;100451.59;;;18.37;96.63
18022;BME280;9136;48.822;7.966;2022-07-19T00:59:18;100450.00;;;18.34;100.00
18022;BME280;9136;48.822;7.966;2022-07-19T01:02:06;100472.88;;;18.37;100.00
18022;BME280;9136;48.822;7.966;2022-07-19T01:04:54;100475.94;;;18.45;100.00
18022;BME280;9136;48.822;7.966;2022-07-19T01:07:42;100458.13;;;18.17;99.33
18022;BME280;9136;48.822;7.966;2022-07-19T01:10:29;100461.88;;;17.98;100.00
18022;BME280;9136;48.822;7.966;2022-07-19T01:13:19;100466.34;;;17.98;100.00
18022;BME280;9136;48.822;7.966;2022-07-19T01:16:07;100468.91;;;17.99;100.00
18022;BME280;9136;48.822;7.966;2022-07-19T01:18:55;100474.88;;;18.03;100.00
18022;BME280;9136;48.822;7.966;2022-07-19T01:21:44;100484.31;;;18.09;100.00
18022;BME280;9136;48.822;7.966;2022-07-19T01:24:32;100468.25;;;17.96;100.00
18022;BME280;9136;48.822;7.966;2022-07-19T01:27:20;100491.25;;;18.11;100.00
18022;BME280;9136;48.822;7.966;2022-07-19T01:30:12;100468.16;;;17.97;98.51
18022;BME280;9136;48.822;7.966;2022-07-19T01:33:01;100461.19;;;17.95;94.03
18022;BME280;9136;48.822;7.966;2022-07-19T01:35:48;100460.94;;;17.99;91.23
18022;BME280;9136;48.822;7.966;2022-07-19T01:38:38;100477.28;;;18.08;89.77
18022;BME280;9136;48.822;7.966;2022-07-19T01:41:26;100470.72;;;17.99;97.58
18022;BME280;9136;48.822;7.966;2022-07-19T01:44:14;100465.75;;;17.93;97.22
18022;BME280;9136;48.822;7.966;2022-07-19T01:47:02;100456.91;;;17.78;97.67
18022;BME280;9136;48.822;7.966;2022-07-19T01:49:50;100458.31;;;17.84;100.00
18022;BME280;9136;48.822;7.966;2022-07-19T01:52:37;100459.97;;;17.86;100.00
18022;BME280;9136;48.822;7.966;2022-07-19T01:55:27;100450.13;;;17.72;100.00
18022;BME280;9136;48.822;7.966;2022-07-19T01:58:17;100456.56;;;17.68;100.00
18022;BME280;9136;48.822;7.966;2022-07-19T02:01:05;100437.13;;;17.52;100.00
18022;BME280;9136;48.822;7.966;2022-07-19T02:03:53;100464.69;;;17.65;100.00
18022;BME280;9136;48.822;7.966;2022-07-19T02:06:40;100448.50;;;17.54;100.00
18022;BME280;9136;48.822;7.966;2022-07-19T02:09:28;100435.75;;;17.45;100.00
18022;BME280;9136;48.822;7.966;2022-07-19T02:12:17;100429.44;;;17.48;100.00
18022;BME280;9136;48.822;7.966;2022-07-19T02:15:07;100446.91;;;17.52;100.00
18022;BME280;9136;48.822;7.966;2022-07-19T02:17:55;100433.91;;;17.47;100.00
18022;BME280;9136;48.822;7.966;2022-07-19T02:20:43;100414.56;;;17.29;99.02
18022;BME280;9136;48.822;7.966;2022-07-19T02:23:31;100415.00;;;17.22;100.00
18022;BME280;9136;48.822;7.966;2022-07-19T02:26:18;100420.22;;;17.07;100.00
18022;BME280;9136;48.822;7.966;2022-07-19T02:29:07;100436.81;;;17.27;100.00
18022;BME280;9136;48.822;7.966;2022-07-19T02:31:55;100426.66;;;17.19;100.00
18022;BME280;9136;48.822;7.966;2022-07-19T02:34:43;100422.97;;;17.22;100.00
18022;BME280;9136;48.822;7.966;2022-07-19T02:37:31;100420.03;;;17.26;100.00
18022;BME280;9136;48.822;7.966;2022-07-19T02:40:20;100423.84;;;17.36;97.27
18022;BME280;9136;48.822;7.966;2022-07-19T02:43:08;100413.19;;;17.38;89.18
18022;BME280;9136;48.822;7.966;2022-07-19T02:45:57;100410.47;;;17.54;96.70
18022;BME280;9136;48.822;7.966;2022-07-19T02:48:45;100421.25;;;17.66;92.50
18022;BME280;9136;48.822;7.966;2022-07-19T02:51:33;100409.84;;;17.64;90.81
18022;BME280;9136;48.822;7.966;2022-07-19T02:54:21;100408.88;;;17.65;84.22
18022;BME280;9136;48.822;7.966;2022-07-19T02:57:08;100426.13;;;17.74;91.49
18022;BME280;9136;48.822;7.966;2022-07-19T02:59:56;100417.28;;;17.73;90.40
18022;BME280;9136;48.822;7.966;2022-07-19T03:02:45;100405.31;;;17.66;90.23
18022;BME280;9136;48.822;7.966;2022-07-19T03:05:33;100437.25;;;17.81;90.60
18022;BME280;9136;48.822;7.966;2022-07-19T03:08:21;100419.34;;;17.68;89.24
18022;BME280;9136;48.822;7.966;2022-07-19T03:11:09;100404.63;;;17.63;88.98
18022;BME280;9136;48.822;7.966;2022-07-19T03:13:57;100401.09;;;17.78;85.10
18022;BME280;9136;48.822;7.966;2022-07-19T03:16:45;100396.53;;;17.80;80.69
18022;BME280;9136;48.822;7.966;2022-07-19T03:19:34;100411.34;;;17.84;86.12
18022;BME280;9136;48.822;7.966;2022-07-19T03:22:22;100429.28;;;17.95;84.84
18022;BME280;9136;48.822;7.966;2022-07-19T03:25:10;100441.72;;;17.94;86.36
18022;BME280;9136;48.822;7.966;2022-07-19T03:27:58;100403.06;;;17.74;87.94
18022;BME280;9136;48.822;7.966;2022-07-19T03:30:46;100405.72;;;17.74;85.91
18022;BME280;9136;48.822;7.966;2022-07-19T03:33:33;100414.19;;;17.81;85.23
18022;BME280;9136;48.822;7.966;2022-07-19T03:36:22;100404.19;;;17.70;86.44
18022;BME280;9136;48.822;7.966;2022-07-19T03:39:10;100424.06;;;17.79;85.27
18022;BME280;9136;48.822;7.966;2022-07-19T03:41:58;100419.59;;;17.80;83.36
18022;BME280;9136;48.822;7.966;2022-07-19T03:44:46;100425.88;;;17.93;84.46
18022;BME280;9136;48.822;7.966;2022-07-19T03:47:34;100435.66;;;17.92;84.26
18022;BME280;9136;48.822;7.966;2022-07-19T03:50:22;100429.78;;;17.87;83.14
18022;BME280;9136;48.822;7.966;2022-07-19T03:53:11;100445.66;;;18.03;86.82
18022;BME280;9136;48.822;7.966;2022-07-19T03:55:59;100430.03;;;17.83;87.46
18022;BME280;9136;48.822;7.966;2022-07-19T03:58:47;100427.47;;;17.81;88.15
18022;BME280;9136;48.822;7.966;2022-07-19T04:01:35;100445.44;;;17.92;91.86
18022;BME280;9136;48.822;7.966;2022-07-19T04:04:24;100455.31;;;17.90;85.99
18022;BME280;9136;48.822;7.966;2022-07-19T04:07:11;100433.44;;;17.70;90.62
18022;BME280;9136;48.822;7.966;2022-07-19T04:10:01;100451.50;;;17.80;87.52
18022;BME280;9136;48.822;7.966;2022-07-19T04:12:48;100445.22;;;17.81;93.04
18022;BME280;9136;48.822;7.966;2022-07-19T04:15:36;100430.13;;;17.65;100.00
18022;BME280;9136;48.822;7.966;2022-07-19T04:18:24;100449.78;;;17.63;100.00
18022;BME280;9136;48.822;7.966;2022-07-19T04:21:12;100442.78;;;17.46;100.00
18022;BME280;9136;48.822;7.966;2022-07-19T04:24:00;100450.75;;;17.46;100.00
18022;BME280;9136;48.822;7.966;2022-07-19T04:26:49;100435.94;;;17.42;100.00
18022;BME280;9136;48.822;7.966;2022-07-19T04:29:37;100438.41;;;17.45;100.00
18022;BME280;9136;48.822;7.966;2022-07-19T04:32:25;100435.19;;;17.40;100.00
18022;BME280;9136;48.822;7.966;2022-07-19T04:35:14;100468.47;;;17.61;100.00
18022;BME280;9136;48.822;7.966;2022-07-19T04:38:02;100453.72;;;17.56;100.00
18022;BME280;9136;48.822;7.966;2022-07-19T04:40:50;100464.38;;;17.71;100.00
18022;BME280;9136;48.822;7.966;2022-07-19T04:43:39;100447.66;;;17.69;97.46
18022;BME280;9136;48.822;7.966;2022-07-19T04:46:27;100442.91;;;17.74;89.32
18022;BME280;9136;48.822;7.966;2022-07-19T04:49:14;100450.44;;;17.82;100.00
18022;BME280;9136;48.822;7.966;2022-07-19T04:52:02;100458.16;;;17.87;100.00
18022;BME280;9136;48.822;7.966;2022-07-19T04:54:50;100478.41;;;18.03;100.00
18022;BME280;9136;48.822;7.966;2022-07-19T04:57:38;100468.06;;;17.99;100.00
18022;BME280;9136;48.822;7.966;2022-07-19T05:00:28;100449.16;;;17.89;98.93
18022;BME280;9136;48.822;7.966;2022-07-19T05:03:15;100454.66;;;18.00;100.00
18022;BME280;9136;48.822;7.966;2022-07-19T05:06:03;100450.97;;;18.03;99.77
18022;BME280;9136;48.822;7.966;2022-07-19T05:08:51;100454.22;;;18.08;100.00
18022;BME280;9136;48.822;7.966;2022-07-19T05:11:39;100458.88;;;18.19;100.00
18022;BME280;9136;48.822;7.966;2022-07-19T05:14:27;100465.56;;;18.26;100.00
18022;BME280;9136;48.822;7.966;2022-07-19T05:17:16;100457.69;;;18.24;96.77
18022;BME280;9136;48.822;7.966;2022-07-19T05:20:05;100450.75;;;18.36;100.00
18022;BME280;9136;48.822;7.966;2022-07-19T05:22:53;100456.34;;;18.46;97.57
18022;BME280;9136;48.822;7.966;2022-07-19T05:25:41;100468.03;;;18.57;98.92
18022;BME280;9136;48.822;7.966;2022-07-19T05:28:29;100468.69;;;18.61;96.20
18022;BME280;9136;48.822;7.966;2022-07-19T05:31:16;100452.56;;;18.64;92.19
18022;BME280;9136;48.822;7.966;2022-07-19T05:34:05;100471.88;;;18.82;89.99
18022;BME280;9136;48.822;7.966;2022-07-19T05:36:53;100472.53;;;18.85;87.69
18022;BME280;9136;48.822;7.966;2022-07-19T05:39:41;100474.41;;;18.98;86.28
18022;BME280;9136;48.822;7.966;2022-07-19T05:42:29;100464.72;;;18.97;89.51
18022;BME280;9136;48.822;7.966;2022-07-19T05:45:16;100470.63;;;19.02;87.60
18022;BME280;9136;48.822;7.966;2022-07-19T05:48:04;100463.47;;;19.02;93.08
18022;BME280;9136;48.822;7.966;2022-07-19T05:50:54;100470.88;;;19.11;91.97
18022;BME280;9136;48.822;7.966;2022-07-19T05:53:42;100477.81;;;19.14;87.53
18022;BME280;9136;48.822;7.966;2022-07-19T05:56:30;100481.97;;;19.18;87.05
18022;BME280;9136;48.822;7.966;2022-07-19T05:59:18;100490.97;;;19.30;90.89
18022;BME280;9136;48.822;7.966;2022-07-19T06:02:08;100469.59;;;19.31;89.03
18022;BME280;9136;48.822;7.966;2022-07-19T06:04:56;100480.44;;;19.55;82.33
18022;BME280;9136;48.822;7.966;2022-07-19T06:07:45;100477.94;;;19.66;81.44
18022;BME280;9136;48.822;7.966;2022-07-19T06:10:32;100487.16;;;19.75;87.42
18022;BME280;9136;48.822;7.966;2022-07-19T06:13:20;100487.91;;;19.77;86.99
18022;BME280;9136;48.822;7.966;2022-07-19T06:16:09;100468.50;;;19.75;86.37
18022;BME280;9136;48.822;7.966;2022-07-19T06:18:57;100514.06;;;19.97;85.36
18022;BME280;9136;48.822;7.966;2022-07-19T06:21:45;100484.00;;;19.95;86.30
18022;BME280;9136;48.822;7.966;2022-07-19T06:24:34;100492.78;;;20.10;82.57
18022;BME280;9136;48.822;7.966;2022-07-19T06:27:22;100464.31;;;20.11;80.28
18022;BME280;9136;48.822;7.966;2022-07-19T06:30:10;100483.63;;;20.40;77.66
18022;BME280;9136;48.822;7.966;2022-07-19T06:32:58;100483.88;;;20.49;74.55
18022;BME280;9136;48.822;7.966;2022-07-19T06:35:45;100465.22;;;20.49;78.68
18022;BME280;9136;48.822;7.966;2022-07-19T06:38:34;100479.28;;;20.64;75.67
18022;BME280;9136;48.822;7.966;2022-07-19T06:41:23;100488.84;;;20.92;75.00
18022;BME280;9136;48.822;7.966;2022-07-19T06:44:11;100483.81;;;21.00;75.29
18022;BME280;9136;48.822;7.966;2022-07-19T06:46:58;100481.03;;;21.02;73.38
18022;BME280;9136;48.822;7.966;2022-07-19T06:49:46;100460.28;;;21.18;71.16
18022;BME280;9136;48.822;7.966;2022-07-19T06:52:34;100479.13;;;21.40;67.68
18022;BME280;9136;48.822;7.966;2022-07-19T06:55:22;100457.72;;;21.53;64.60
18022;BME280;9136;48.822;7.966;2022-07-19T06:58:12;100452.69;;;21.73;63.02
18022;BME280;9136;48.822;7.966;2022-07-19T07:00:59;100473.44;;;22.04;67.00
18022;BME280;9136;48.822;7.966;2022-07-19T07:03:49;100459.00;;;22.07;72.14
18022;BME280;9136;48.822;7.966;2022-07-19T07:06:37;100478.28;;;22.23;68.19
18022;BME280;9136;48.822;7.966;2022-07-19T07:09:24;100452.88;;;22.40;62.49
18022;BME280;9136;48.822;7.966;2022-07-19T07:12:12;100451.44;;;22.69;58.22
18022;BME280;9136;48.822;7.966;2022-07-19T07:15:02;100463.63;;;22.84;57.09
18022;BME280;9136;48.822;7.966;2022-07-19T07:17:49;100465.56;;;22.94;63.59
18022;BME280;9136;48.822;7.966;2022-07-19T07:20:37;100491.25;;;23.19;62.59
18022;BME280;9136;48.822;7.966;2022-07-19T07:23:25;100474.94;;;23.10;63.38
18022;BME280;9136;48.822;7.966;2022-07-19T07:26:13;100474.53;;;23.15;60.90
18022;BME280;9136;48.822;7.966;2022-07-19T07:29:01;100483.72;;;23.45;56.53
18022;BME280;9136;48.822;7.966;2022-07-19T07:31:50;100485.88;;;23.73;53.70
18022;BME280;9136;48.822;7.966;2022-07-19T07:34:38;100477.13;;;23.92;53.51
18022;BME280;9136;48.822;7.966;2022-07-19T07:37:26;100475.19;;;24.15;54.84
18022;BME280;9136;48.822;7.966;2022-07-19T07:40:14;100481.06;;;24.30;54.48
18022;BME280;9136;48.822;7.966;2022-07-19T07:43:01;100467.22;;;24.24;57.61
18022;BME280;9136;48.822;7.966;2022-07-19T07:45:49;100456.91;;;24.30;58.40
18022;BME280;9136;48.822;7.966;2022-07-19T07:48:38;100444.31;;;24.30;54.51
18022;BME280;9136;48.822;7.966;2022-07-19T07:51:26;100474.19;;;24.58;55.04
18022;BME280;9136;48.822;7.966;2022-07-19T07:54:14;100456.78;;;24.52;57.65
18022;BME280;9136;48.822;7.966;2022-07-19T07:57:02;100458.25;;;24.66;56.77
18022;BME280;9136;48.822;7.966;2022-07-19T07:59:50;100437.66;;;24.76;53.21
18022;BME280;9136;48.822;7.966;2022-07-19T08:02:39;100460.22;;;24.94;55.39
18022;BME280;9136;48.822;7.966;2022-07-19T08:05:29;100446.50;;;24.97;57.78
18022;BME280;9136;48.822;7.966;2022-07-19T08:08:17;100437.78;;;25.05;50.72
18022;BME280;9136;48.822;7.966;2022-07-19T08:11:05;100458.34;;;25.35;53.76
18022;BME280;9136;48.822;7.966;2022-07-19T08:13:53;100448.31;;;25.47;49.89
18022;BME280;9136;48.822;7.966;2022-07-19T08:16:40;100441.81;;;25.59;51.05
18022;BME280;9136;48.822;7.966;2022-07-19T08:19:28;100443.13;;;25.74;49.57
18022;BME280;9136;48.822;7.966;2022-07-19T08:22:18;100417.75;;;25.86;49.12
18022;BME280;9136;48.822;7.966;2022-07-19T08:25:06;100432.75;;;25.99;48.93
18022;BME280;9136;48.822;7.966;2022-07-19T08:27:54;100440.94;;;26.26;47.70
18022;BME280;9136;48.822;7.966;2022-07-19T08:30:42;100421.47;;;26.32;49.87
18022;BME280;9136;48.822;7.966;2022-07-19T08:33:30;100440.06;;;26.45;47.21
18022;BME280;9136;48.822;7.966;2022-07-19T08:36:18;100445.44;;;26.35;47.16
18022;BME280;9136;48.822;7.966;2022-07-19T08:39:07;100433.53;;;26.28;47.16
18022;BME280;9136;48.822;7.966;2022-07-19T08:41:54;100445.81;;;26.60;46.69
18022;BME280;9136;48.822;7.966;2022-07-19T08:44:43;100434.50;;;26.84;53.19
18022;BME280;9136;48.822;7.966;2022-07-19T08:47:31;100430.50;;;27.15;55.32
18022;BME280;9136;48.822;7.966;2022-07-19T08:50:19;100441.88;;;27.36;46.26
18022;BME280;9136;48.822;7.966;2022-07-19T08:53:07;100424.13;;;27.16;45.47
18022;BME280;9136;48.822;7.966;2022-07-19T08:55:56;100455.81;;;27.32;45.03
18022;BME280;9136;48.822;7.966;2022-07-19T08:58:44;100441.53;;;27.39;48.23
18022;BME280;9136;48.822;7.966;2022-07-19T09:01:31;100442.97;;;27.61;45.41
18022;BME280;9136;48.822;7.966;2022-07-19T09:04:22;100430.44;;;27.70;48.13
18022;BME280;9136;48.822;7.966;2022-07-19T09:07:18;100426.47;;;27.82;44.40
18022;BME280;9136;48.822;7.966;2022-07-19T09:10:16;100458.88;;;28.08;42.67
18022;BME280;9136;48.822;7.966;2022-07-19T09:13:08;100428.38;;;28.16;47.69
18022;BME280;9136;48.822;7.966;2022-07-19T09:15:56;100424.72;;;28.43;43.70
18022;BME280;9136;48.822;7.966;2022-07-19T09:18:44;100436.31;;;28.61;46.27
18022;BME280;9136;48.822;7.966;2022-07-19T09:21:50;100437.75;;;28.82;44.69
18022;BME280;9136;48.822;7.966;2022-07-19T09:24:40;100426.91;;;28.82;41.63
18022;BME280;9136;48.822;7.966;2022-07-19T09:27:28;100432.94;;;29.01;44.96
18022;BME280;9136;48.822;7.966;2022-07-19T09:30:31;100432.47;;;29.14;40.55
18022;BME280;9136;48.822;7.966;2022-07-19T09:33:22;100430.09;;;29.11;42.04
18022;BME280;9136;48.822;7.966;2022-07-19T09:36:12;100428.44;;;29.18;41.37
18022;BME280;9136;48.822;7.966;2022-07-19T09:39:00;100415.25;;;29.31;43.38
18022;BME280;9136;48.822;7.966;2022-07-19T09:41:54;100415.94;;;29.33;40.47
18022;BME280;9136;48.822;7.966;2022-07-19T09:44:44;100430.38;;;29.58;39.95
18022;BME280;9136;48.822;7.966;2022-07-19T09:47:34;100417.13;;;29.39;39.19
18022;BME280;9136;48.822;7.966;2022-07-19T09:50:22;100414.31;;;29.65;40.68
18022;BME280;9136;48.822;7.966;2022-07-19T09:53:10;100423.44;;;29.80;38.73
18022;BME280;9136;48.822;7.966;2022-07-19T09:55:58;100417.69;;;30.00;41.33
18022;BME280;9136;48.822;7.966;2022-07-19T09:58:46;100403.13;;;30.09;39.23
18022;BME280;9136;48.822;7.966;2022-07-19T10:01:34;100407.69;;;30.25;38.53
18022;BME280;9136;48.822;7.966;2022-07-19T10:04:25;100381.59;;;30.32;37.12
18022;BME280;9136;48.822;7.966;2022-07-19T10:07:15;100377.97;;;30.47;36.52
18022;BME280;9136;48.822;7.966;2022-07-19T10:10:05;100377.09;;;30.55;35.71
18022;BME280;9136;48.822;7.966;2022-07-19T10:12:53;100378.59;;;30.66;33.68
18022;BME280;9136;48.822;7.966;2022-07-19T10:15:44;100370.63;;;30.72;36.19
18022;BME280;9136;48.822;7.966;2022-07-19T10:18:45;100387.88;;;31.11;35.31
18022;BME280;9136;48.822;7.966;2022-07-19T10:21:40;100385.13;;;31.42;35.66
18022;BME280;9136;48.822;7.966;2022-07-19T10:24:48;100361.53;;;31.42;32.67
18022;BME280;9136;48.822;7.966;2022-07-19T10:27:39;100358.97;;;31.63;34.83
18022;BME280;9136;48.822;7.966;2022-07-19T10:30:27;100353.63;;;31.55;31.97
18022;BME280;9136;48.822;7.966;2022-07-19T10:33:27;100338.16;;;31.79;33.44
18022;BME280;9136;48.822;7.966;2022-07-19T10:36:32;100344.28;;;32.25;36.45
18022;BME280;9136;48.822;7.966;2022-07-19T10:39:31;100335.69;;;32.36;34.08
18022;BME280;9136;48.822;7.966;2022-07-19T10:42:21;100342.53;;;32.32;36.34
18022;BME280;9136;48.822;7.966;2022-07-19T10:45:12;100336.13;;;32.55;37.50
18022;BME280;9136;48.822;7.966;2022-07-19T10:48:08;100332.09;;;32.65;34.58
18022;BME280;9136;48.822;7.966;2022-07-19T10:50:57;100314.28;;;32.63;34.54
18022;BME280;9136;48.822;7.966;2022-07-19T10:54:03;100305.66;;;32.81;35.46
18022;BME280;9136;48.822;7.966;2022-07-19T10:56:57;100325.09;;;32.92;32.14
18022;BME280;9136;48.822;7.966;2022-07-19T10:59:45;100310.66;;;33.13;32.65
18022;BME280;9136;48.822;7.966;2022-07-19T11:02:33;100292.25;;;33.37;33.80
18022;BME280;9136;48.822;7.966;2022-07-19T11:05:21;100311.25;;;33.79;34.50
18022;BME280;9136;48.822;7.966;2022-07-19T11:08:09;100285.84;;;34.41;32.87
18022;BME280;9136;48.822;7.966;2022-07-19T11:11:03;100290.78;;;36.31;32.22
18022;BME280;9136;48.822;7.966;2022-07-19T11:13:53;100281.50;;;38.45;30.15
18022;BME280;9136;48.822;7.966;2022-07-19T11:16:41;100286.75;;;40.07;24.57
18022;BME280;9136;48.822;7.966;2022-07-19T11:19:29;100284.31;;;41.36;23.03
18022;BME280;9136;48.822;7.966;2022-07-19T11:22:17;100279.16;;;42.17;22.69
18022;BME280;9136;48.822;7.966;2022-07-19T11:25:06;100277.47;;;43.14;19.17
18022;BME280;9136;48.822;7.966;2022-07-19T11:27:54;100264.16;;;43.38;18.69
18022;BME280;9136;48.822;7.966;2022-07-19T11:30:43;100286.53;;;44.16;17.67
18022;BME280;9136;48.822;7.966;2022-07-19T11:33:31;100269.22;;;44.51;21.02
18022;BME280;9136;48.822;7.966;2022-07-19T11:36:19;100262.63;;;44.82;19.26
18022;BME280;9136;48.822;7.966;2022-07-19T11:39:07;100270.09;;;44.67;16.99
18022;BME280;9136;48.822;7.966;2022-07-19T11:41:54;100251.53;;;44.62;18.03
18022;BME280;9136;48.822;7.966;2022-07-19T11:44:42;100242.66;;;44.70;18.87
18022;BME280;9136;48.822;7.966;2022-07-19T11:47:33;100246.03;;;44.05;19.32
18022;BME280;9136;48.822;7.966;2022-07-19T11:50:23;100258.63;;;44.33;16.75
18022;BME280;9136;48.822;7.966;2022-07-19T11:53:19;100235.94;;;44.46;17.09
18022;BME280;9136;48.822;7.966;2022-07-19T11:56:16;100239.91;;;44.96;18.00
18022;BME280;9136;48.822;7.966;2022-07-19T11:59:06;100239.91;;;45.06;15.77
18022;BME280;9136;48.822;7.966;2022-07-19T12:01:55;100247.06;;;45.73;15.51
18022;BME280;9136;48.822;7.966;2022-07-19T12:04:45;100230.03;;;46.00;17.45
18022;BME280;9136;48.822;7.966;2022-07-19T12:07:33;100223.63;;;46.15;15.73
18022;BME280;9136;48.822;7.966;2022-07-19T12:10:35;100212.34;;;46.40;15.82
18022;BME280;9136;48.822;7.966;2022-07-19T12:13:29;100209.03;;;46.77;17.96
18022;BME280;9136;48.822;7.966;2022-07-19T12:16:18;100206.19;;;46.88;16.62
18022;BME280;9136;48.822;7.966;2022-07-19T12:19:10;100202.38;;;47.13;14.36
18022;BME280;9136;48.822;7.966;2022-07-19T12:22:00;100208.16;;;46.43;14.62
18022;BME280;9136;48.822;7.966;2022-07-19T12:24:47;100202.41;;;46.73;14.70
18022;BME280;9136;48.822;7.966;2022-07-19T12:27:36;100205.69;;;46.81;14.39
18022;BME280;9136;48.822;7.966;2022-07-19T12:30:24;100209.22;;;46.52;14.04
18022;BME280;9136;48.822;7.966;2022-07-19T12:33:13;100208.84;;;48.09;12.37
18022;BME280;9136;48.822;7.966;2022-07-19T12:36:01;100190.72;;;47.87;13.88
18022;BME280;9136;48.822;7.966;2022-07-19T12:38:50;100183.44;;;46.81;13.13
18022;BME280;9136;48.822;7.966;2022-07-19T12:41:38;100186.94;;;46.96;13.32
18022;BME280;9136;48.822;7.966;2022-07-19T12:44:26;100204.31;;;48.13;12.26
18022;BME280;9136;48.822;7.966;2022-07-19T12:47:14;100194.16;;;48.79;10.28
18022;BME280;9136;48.822;7.966;2022-07-19T12:50:02;100179.81;;;49.59;12.61
18022;BME280;9136;48.822;7.966;2022-07-19T12:52:51;100187.84;;;48.35;14.50
18022;BME280;9136;48.822;7.966;2022-07-19T12:55:42;100189.72;;;48.59;9.68
18022;BME280;9136;48.822;7.966;2022-07-19T12:58:30;100185.09;;;48.87;9.61
18022;BME280;9136;48.822;7.966;2022-07-19T13:01:35;100195.50;;;49.14;9.80
18022;BME280;9136;48.822;7.966;2022-07-19T13:04:23;100185.78;;;48.79;9.97
18022;BME280;9136;48.822;7.966;2022-07-19T13:07:11;100158.84;;;46.64;10.46
18022;BME280;9136;48.822;7.966;2022-07-19T13:10:00;100172.72;;;45.55;11.37
18022;BME280;9136;48.822;7.966;2022-07-19T13:12:49;100137.53;;;45.25;12.05
18022;BME280;9136;48.822;7.966;2022-07-19T13:15:37;100167.09;;;46.74;11.46
18022;BME280;9136;48.822;7.966;2022-07-19T13:18:25;100154.25;;;48.45;11.68
18022;BME280;9136;48.822;7.966;2022-07-19T13:21:12;100142.59;;;46.76;12.39
18022;BME280;9136;48.822;7.966;2022-07-19T13:24:00;100140.06;;;46.85;13.99
18022;BME280;9136;48.822;7.966;2022-07-19T13:26:48;100141.56;;;47.30;12.20
18022;BME280;9136;48.822;7.966;2022-07-19T13:29:37;100146.31;;;47.96;12.17
18022;BME280;9136;48.822;7.966;2022-07-19T13:32:25;100139.22;;;48.23;10.94
18022;BME280;9136;48.822;7.966;2022-07-19T13:35:13;100123.19;;;47.00;12.24
18022;BME280;9136;48.822;7.966;2022-07-19T13:38:02;100127.78;;;48.05;12.45
18022;BME280;9136;48.822;7.966;2022-07-19T13:40:50;100130.44;;;47.97;12.50
18022;BME280;9136;48.822;7.966;2022-07-19T13:43:38;100105.13;;;47.02;12.20
18022;BME280;9136;48.822;7.966;2022-07-19T13:46:27;100100.59;;;46.77;11.49
18022;BME280;9136;48.822;7.966;2022-07-19T13:49:15;100098.16;;;46.37;12.85
18022;BME280;9136;48.822;7.966;2022-07-19T13:52:03;100107.72;;;46.26;13.37
18022;BME280;9136;48.822;7.966;2022-07-19T13:54:50;100091.38;;;47.11;12.12
18022;BME280;9136;48.822;7.966;2022-07-19T13:57:38;100091.69;;;48.52;12.67
18022;BME280;9136;48.822;7.966;2022-07-19T14:00:26;100096.78;;;49.78;11.65
18022;BME280;9136;48.822;7.966;2022-07-19T14:03:16;100102.22;;;49.34;10.67
18022;BME280;9136;48.822;7.966;2022-07-19T14:06:04;100084.88;;;49.32;12.34
18022;BME280;9136;48.822;7.966;2022-07-19T14:08:52;100101.97;;;49.16;11.61
18022;BME280;9136;48.822;7.966;2022-07-19T14:11:40;100073.94;;;48.94;11.57
18022;BME280;9136;48.822;7.966;2022-07-19T14:14:29;100071.00;;;48.39;13.45
18022;BME280;9136;48.822;7.966;2022-07-19T14:17:17;100069.59;;;47.85;12.49
18022;BME280;9136;48.822;7.966;2022-07-19T14:20:07;100076.53;;;47.87;11.29
18022;BME280;9136;48.822;7.966;2022-07-19T14:22:55;100080.09;;;47.50;11.30
18022;BME280;9136;48.822;7.966;2022-07-19T14:25:43;100069.38;;;48.84;14.16
18022;BME280;9136;48.822;7.966;2022-07-19T14:28:31;100070.56;;;49.52;11.67
18022;BME280;9136;48.822;7.966;2022-07-19T14:31:19;100052.75;;;49.48;12.22
18022;BME280;9136;48.822;7.966;2022-07-19T14:34:06;100064.16;;;49.38;11.10
18022;BME280;9136;48.822;7.966;2022-07-19T14:36:55;100064.09;;;47.61;11.43
18022;BME280;9136;48.822;7.966;2022-07-19T14:39:43;100060.19;;;48.18;12.20
18022;BME280;9136;48.822;7.966;2022-07-19T14:42:31;100050.03;;;48.28;11.02
18022;BME280;9136;48.822;7.966;2022-07-19T14:45:19;100036.22;;;47.42;12.89
18022;BME280;9136;48.822;7.966;2022-07-19T14:48:07;100035.13;;;47.81;11.61
18022;BME280;9136;48.822;7.966;2022-07-19T14:50:54;100044.00;;;47.83;13.30
18022;BME280;9136;48.822;7.966;2022-07-19T14:53:44;100036.00;;;47.76;13.55